LFMU/BZR METAR and TAF weather

Enter ICAO airport designator
Station Type Date Time Source
LFMU METAR 2021/01/20 22:30 UTC NOAA

LFMU 202230Z AUTO 09005KT CAVOK 10/07 Q1005


Station Type Date Time Source
LFMU Decoded METAR 2021/01/20 22:30 UTC NOAA

Beziers / Vias, France (LFMU) 43-19N 003-21E
Jan 20, 2021 - 05:30 PM EST / 2021.01.20 2230 UTC
Wind: from the E (090 degrees) at 6 MPH (5 KT):0
Visibility: greater than 7 mile(s):0
Temperature: 50 F (10 C)
Dew Point: 44 F (7 C)
Relative Humidity: 81%
Pressure (altimeter): 29.68 in. Hg (1005 hPa)
ob: LFMU 202230Z AUTO 09005KT CAVOK 10/07 Q1005
cycle: 22

Station Type Date Time Source
LFMU TAF 2021/01/20 19:33 UTC NOAA

TAF
AMD TAF
AMD LFMU 201930Z 2019/2115 CNL

Example: see airport list